KAOH/AOH METAR and TAF weather

Enter ICAO airport designator
Station Type Date Time Source
KAOH METAR 2019/08/22 15:31 UTC NOAA

KAOH 221531Z AUTO 01005KT 10SM BKN010 BKN047 22/20 A2998 RMK AO2 T02220200 $


Station Type Date Time Source
KAOH Decoded METAR 2019/08/22 15:31 UTC NOAA

Station name not available
Aug 22, 2019 - 11:31 AM EDT / 2019.08.22 1531 UTC
Wind: from the N (010 degrees) at 6 MPH (5 KT):0
Visibility: 10 mile(s):0
Sky conditions: mostly cloudy
Temperature: 72.0 F (22.2 C)
Dew Point: 68.0 F (20.0 C)
Relative Humidity: 87%
Pressure (altimeter): 29.98 in. Hg (1015 hPa)
ob: KAOH 221531Z AUTO 01005KT 10SM BKN010 BKN047 22/20 A2998 RMK AO2 T02220200
cycle: 15

Station Type Date Time Source
KAOH TAF UTC NOAA

Error!

Example: see airport list